sensor_id;sensor_type;location;lat;lon;timestamp;temperature;humidity
15977;DHT22;8091;51.914;12.786;2022-07-01T00:02:04;23.30;99.90
15977;DHT22;8091;51.914;12.786;2022-07-01T00:04:30;23.30;99.90
15977;DHT22;8091;51.914;12.786;2022-07-01T00:06:56;23.30;99.90
15977;DHT22;8091;51.914;12.786;2022-07-01T00:09:23;23.40;99.90
15977;DHT22;8091;51.914;12.786;2022-07-01T00:11:48;23.40;99.90
15977;DHT22;8091;51.914;12.786;2022-07-01T00:14:14;23.30;99.90
15977;DHT22;8091;51.914;12.786;2022-07-01T00:16:40;23.30;99.90
15977;DHT22;8091;51.914;12.786;2022-07-01T00:19:05;23.30;99.90
15977;DHT22;8091;51.914;12.786;2022-07-01T00:21:31;23.30;99.90
15977;DHT22;8091;51.914;12.786;2022-07-01T00:23:57;23.30;99.90
15977;DHT22;8091;51.914;12.786;2022-07-01T00:26:23;23.30;99.90
15977;DHT22;8091;51.914;12.786;2022-07-01T00:28:49;23.30;99.90
15977;DHT22;8091;51.914;12.786;2022-07-01T00:31:14;23.20;99.90
15977;DHT22;8091;51.914;12.786;2022-07-01T00:33:40;23.30;99.90
15977;DHT22;8091;51.914;12.786;2022-07-01T00:36:05;23.30;99.90
15977;DHT22;8091;51.914;12.786;2022-07-01T00:38:31;23.30;99.90
15977;DHT22;8091;51.914;12.786;2022-07-01T00:40:57;23.20;99.90
15977;DHT22;8091;51.914;12.786;2022-07-01T00:43:23;23.20;1.00
15977;DHT22;8091;51.914;12.786;2022-07-01T00:45:50;23.30;99.90
15977;DHT22;8091;51.914;12.786;2022-07-01T00:48:16;23.30;99.90
15977;DHT22;8091;51.914;12.786;2022-07-01T00:50:43;23.30;99.90
15977;DHT22;8091;51.914;12.786;2022-07-01T00:53:09;23.30;99.90
15977;DHT22;8091;51.914;12.786;2022-07-01T00:55:35;23.30;99.90
15977;DHT22;8091;51.914;12.786;2022-07-01T00:58:00;23.30;21.50
15977;DHT22;8091;51.914;12.786;2022-07-01T01:00:26;23.20;99.90
15977;DHT22;8091;51.914;12.786;2022-07-01T01:02:52;23.30;99.90
15977;DHT22;8091;51.914;12.786;2022-07-01T01:05:18;23.10;99.90
15977;DHT22;8091;51.914;12.786;2022-07-01T01:07:46;23.10;99.90
15977;DHT22;8091;51.914;12.786;2022-07-01T01:10:13;23.00;1.00
15977;DHT22;8091;51.914;12.786;2022-07-01T01:12:40;23.00;1.00
15977;DHT22;8091;51.914;12.786;2022-07-01T01:15:06;22.90;1.00
15977;DHT22;8091;51.914;12.786;2022-07-01T01:17:32;22.90;1.00
15977;DHT22;8091;51.914;12.786;2022-07-01T01:19:58;22.90;1.00
15977;DHT22;8091;51.914;12.786;2022-07-01T01:22:23;22.90;1.00
15977;DHT22;8091;51.914;12.786;2022-07-01T01:24:49;23.00;1.00
15977;DHT22;8091;51.914;12.786;2022-07-01T01:27:15;23.00;1.00
15977;DHT22;8091;51.914;12.786;2022-07-01T01:29:42;23.00;99.90
15977;DHT22;8091;51.914;12.786;2022-07-01T01:32:08;23.10;99.90
15977;DHT22;8091;51.914;12.786;2022-07-01T01:34:36;23.10;99.90
15977;DHT22;8091;51.914;12.786;2022-07-01T01:37:03;23.00;99.90
15977;DHT22;8091;51.914;12.786;2022-07-01T01:39:28;22.90;1.00
15977;DHT22;8091;51.914;12.786;2022-07-01T01:41:54;22.80;1.00
15977;DHT22;8091;51.914;12.786;2022-07-01T01:44:20;22.80;1.00
15977;DHT22;8091;51.914;12.786;2022-07-01T01:46:45;22.80;1.00
15977;DHT22;8091;51.914;12.786;2022-07-01T01:49:11;22.70;1.00
15977;DHT22;8091;51.914;12.786;2022-07-01T01:51:37;22.70;1.00
15977;DHT22;8091;51.914;12.786;2022-07-01T01:54:03;22.80;1.00
15977;DHT22;8091;51.914;12.786;2022-07-01T01:56:29;22.80;1.00
15977;DHT22;8091;51.914;12.786;2022-07-01T01:58:55;22.80;1.00
15977;DHT22;8091;51.914;12.786;2022-07-01T02:01:21;22.80;1.00
15977;DHT22;8091;51.914;12.786;2022-07-01T02:03:48;23.00;99.90
15977;DHT22;8091;51.914;12.786;2022-07-01T02:06:16;23.00;99.90
15977;DHT22;8091;51.914;12.786;2022-07-01T02:08:42;23.00;99.90
15977;DHT22;8091;51.914;12.786;2022-07-01T02:11:08;22.90;1.00
15977;DHT22;8091;51.914;12.786;2022-07-01T02:13:35;22.80;1.00
15977;DHT22;8091;51.914;12.786;2022-07-01T02:16:01;22.90;1.00
15977;DHT22;8091;51.914;12.786;2022-07-01T02:18:27;22.90;99.90
15977;DHT22;8091;51.914;12.786;2022-07-01T02:20:53;22.90;1.00
15977;DHT22;8091;51.914;12.786;2022-07-01T02:23:19;22.70;1.00
15977;DHT22;8091;51.914;12.786;2022-07-01T02:25:45;22.70;1.00
15977;DHT22;8091;51.914;12.786;2022-07-01T02:28:14;22.80;1.00
15977;DHT22;8091;51.914;12.786;2022-07-01T02:30:40;22.80;1.00
15977;DHT22;8091;51.914;12.786;2022-07-01T02:33:07;22.70;1.00
15977;DHT22;8091;51.914;12.786;2022-07-01T02:35:35;22.70;1.00
15977;DHT22;8091;51.914;12.786;2022-07-01T02:38:01;22.60;1.00
15977;DHT22;8091;51.914;12.786;2022-07-01T02:40:26;22.50;1.00
15977;DHT22;8091;51.914;12.786;2022-07-01T02:42:52;22.50;20.30
15977;DHT22;8091;51.914;12.786;2022-07-01T02:45:17;22.40;99.90
15977;DHT22;8091;51.914;12.786;2022-07-01T02:47:43;22.50;36.60
15977;DHT22;8091;51.914;12.786;2022-07-01T02:50:11;22.60;1.00
15977;DHT22;8091;51.914;12.786;2022-07-01T02:52:39;22.60;1.00
15977;DHT22;8091;51.914;12.786;2022-07-01T02:55:06;22.60;1.00
15977;DHT22;8091;51.914;12.786;2022-07-01T02:57:32;22.50;1.00
15977;DHT22;8091;51.914;12.786;2022-07-01T02:59:59;22.70;1.00
15977;DHT22;8091;51.914;12.786;2022-07-01T03:02:24;22.70;99.90
15977;DHT22;8091;51.914;12.786;2022-07-01T03:04:51;22.60;99.90
15977;DHT22;8091;51.914;12.786;2022-07-01T03:07:18;22.50;99.90
15977;DHT22;8091;51.914;12.786;2022-07-01T03:09:44;22.50;99.90
15977;DHT22;8091;51.914;12.786;2022-07-01T03:12:11;22.70;99.90
15977;DHT22;8091;51.914;12.786;2022-07-01T03:14:56;22.70;99.90
15977;DHT22;8091;51.914;12.786;2022-07-01T03:17:23;22.80;99.90
15977;DHT22;8091;51.914;12.786;2022-07-01T03:19:49;22.70;99.90
15977;DHT22;8091;51.914;12.786;2022-07-01T03:22:17;22.70;99.90
15977;DHT22;8091;51.914;12.786;2022-07-01T03:24:42;22.70;99.90
15977;DHT22;8091;51.914;12.786;2022-07-01T03:27:08;22.70;99.90
15977;DHT22;8091;51.914;12.786;2022-07-01T03:29:34;22.70;99.90
15977;DHT22;8091;51.914;12.786;2022-07-01T03:32:00;22.50;99.90
15977;DHT22;8091;51.914;12.786;2022-07-01T03:34:26;22.30;99.90
15977;DHT22;8091;51.914;12.786;2022-07-01T03:36:51;22.20;99.90
15977;DHT22;8091;51.914;12.786;2022-07-01T03:39:17;22.30;99.90
15977;DHT22;8091;51.914;12.786;2022-07-01T03:41:43;22.40;99.90
15977;DHT22;8091;51.914;12.786;2022-07-01T03:44:09;22.30;99.90
15977;DHT22;8091;51.914;12.786;2022-07-01T03:46:35;22.10;99.90
15977;DHT22;8091;51.914;12.786;2022-07-01T03:49:01;22.00;99.90
15977;DHT22;8091;51.914;12.786;2022-07-01T03:51:27;22.00;99.90
15977;DHT22;8091;51.914;12.786;2022-07-01T03:53:53;21.90;99.90
15977;DHT22;8091;51.914;12.786;2022-07-01T03:56:37;21.90;99.90
15977;DHT22;8091;51.914;12.786;2022-07-01T03:59:03;22.00;99.90
15977;DHT22;8091;51.914;12.786;2022-07-01T04:01:28;22.00;99.90
15977;DHT22;8091;51.914;12.786;2022-07-01T04:03:54;22.00;99.90
15977;DHT22;8091;51.914;12.786;2022-07-01T04:06:20;22.10;99.90
15977;DHT22;8091;51.914;12.786;2022-07-01T04:08:47;22.10;99.90
15977;DHT22;8091;51.914;12.786;2022-07-01T04:11:14;22.00;99.90
15977;DHT22;8091;51.914;12.786;2022-07-01T04:13:40;21.80;99.90
15977;DHT22;8091;51.914;12.786;2022-07-01T04:16:06;22.20;99.90
15977;DHT22;8091;51.914;12.786;2022-07-01T04:18:32;22.30;99.90
15977;DHT22;8091;51.914;12.786;2022-07-01T04:20:58;22.50;99.90
15977;DHT22;8091;51.914;12.786;2022-07-01T04:23:43;22.60;99.90
15977;DHT22;8091;51.914;12.786;2022-07-01T04:26:09;22.70;99.90
15977;DHT22;8091;51.914;12.786;2022-07-01T04:28:35;22.80;99.90
15977;DHT22;8091;51.914;12.786;2022-07-01T04:31:00;22.90;99.90
15977;DHT22;8091;51.914;12.786;2022-07-01T04:33:26;22.80;99.90
15977;DHT22;8091;51.914;12.786;2022-07-01T04:35:51;22.90;99.90
15977;DHT22;8091;51.914;12.786;2022-07-01T04:38:17;22.80;99.90
15977;DHT22;8091;51.914;12.786;2022-07-01T04:40:43;22.80;99.90
15977;DHT22;8091;51.914;12.786;2022-07-01T04:43:28;22.80;99.90
15977;DHT22;8091;51.914;12.786;2022-07-01T04:45:54;22.70;99.90
15977;DHT22;8091;51.914;12.786;2022-07-01T04:48:20;22.80;99.90
15977;DHT22;8091;51.914;12.786;2022-07-01T04:50:46;22.90;99.90
15977;DHT22;8091;51.914;12.786;2022-07-01T04:53:13;23.00;99.90
15977;DHT22;8091;51.914;12.786;2022-07-01T04:55:38;23.10;99.90
15977;DHT22;8091;51.914;12.786;2022-07-01T04:58:04;23.10;99.90
15977;DHT22;8091;51.914;12.786;2022-07-01T05:00:30;23.20;99.90
15977;DHT22;8091;51.914;12.786;2022-07-01T05:02:55;23.20;99.90
15977;DHT22;8091;51.914;12.786;2022-07-01T05:05:21;23.40;99.90
15977;DHT22;8091;51.914;12.786;2022-07-01T05:07:47;23.40;99.90
15977;DHT22;8091;51.914;12.786;2022-07-01T05:10:13;23.50;99.90
15977;DHT22;8091;51.914;12.786;2022-07-01T05:12:38;23.50;99.90
15977;DHT22;8091;51.914;12.786;2022-07-01T05:15:04;23.70;99.90
15977;DHT22;8091;51.914;12.786;2022-07-01T05:17:30;23.80;99.90
15977;DHT22;8091;51.914;12.786;2022-07-01T05:20:14;23.80;99.90
15977;DHT22;8091;51.914;12.786;2022-07-01T05:22:59;23.90;99.90
15977;DHT22;8091;51.914;12.786;2022-07-01T05:25:24;24.10;99.90
15977;DHT22;8091;51.914;12.786;2022-07-01T05:27:50;24.20;99.90
15977;DHT22;8091;51.914;12.786;2022-07-01T05:30:15;24.20;99.90
15977;DHT22;8091;51.914;12.786;2022-07-01T05:32:41;24.10;99.90
15977;DHT22;8091;51.914;12.786;2022-07-01T05:35:07;24.10;99.90
15977;DHT22;8091;51.914;12.786;2022-07-01T05:37:32;24.00;99.90
15977;DHT22;8091;51.914;12.786;2022-07-01T05:39:58;24.00;99.90
15977;DHT22;8091;51.914;12.786;2022-07-01T05:42:23;24.00;99.90
15977;DHT22;8091;51.914;12.786;2022-07-01T05:44:49;24.00;99.90
15977;DHT22;8091;51.914;12.786;2022-07-01T05:47:15;24.20;99.90
15977;DHT22;8091;51.914;12.786;2022-07-01T05:49:40;24.20;99.90
15977;DHT22;8091;51.914;12.786;2022-07-01T05:52:06;24.40;99.90
15977;DHT22;8091;51.914;12.786;2022-07-01T05:54:32;24.60;99.90
15977;DHT22;8091;51.914;12.786;2022-07-01T05:56:57;24.70;99.90
15977;DHT22;8091;51.914;12.786;2022-07-01T05:59:23;24.70;99.90
15977;DHT22;8091;51.914;12.786;2022-07-01T06:01:49;25.00;99.90
15977;DHT22;8091;51.914;12.786;2022-07-01T06:04:16;25.20;99.90
15977;DHT22;8091;51.914;12.786;2022-07-01T06:06:42;25.10;99.90
15977;DHT22;8091;51.914;12.786;2022-07-01T06:09:07;24.90;99.90
15977;DHT22;8091;51.914;12.786;2022-07-01T06:11:33;25.00;99.90
15977;DHT22;8091;51.914;12.786;2022-07-01T06:13:59;24.90;99.90
15977;DHT22;8091;51.914;12.786;2022-07-01T06:16:24;24.90;99.90
15977;DHT22;8091;51.914;12.786;2022-07-01T06:18:50;25.00;99.90
15977;DHT22;8091;51.914;12.786;2022-07-01T06:21:16;25.00;99.90
15977;DHT22;8091;51.914;12.786;2022-07-01T06:23:42;24.90;99.90
15977;DHT22;8091;51.914;12.786;2022-07-01T06:26:08;24.90;99.90
15977;DHT22;8091;51.914;12.786;2022-07-01T06:28:33;24.90;99.90
15977;DHT22;8091;51.914;12.786;2022-07-01T06:30:59;24.70;99.90
15977;DHT22;8091;51.914;12.786;2022-07-01T06:33:25;24.70;99.90
15977;DHT22;8091;51.914;12.786;2022-07-01T06:35:56;24.70;99.90
15977;DHT22;8091;51.914;12.786;2022-07-01T06:38:29;24.50;99.90
15977;DHT22;8091;51.914;12.786;2022-07-01T06:40:57;24.50;99.90
15977;DHT22;8091;51.914;12.786;2022-07-01T06:43:45;24.60;99.90
15977;DHT22;8091;51.914;12.786;2022-07-01T06:46:14;24.50;99.90
15977;DHT22;8091;51.914;12.786;2022-07-01T06:48:40;24.40;99.90
15977;DHT22;8091;51.914;12.786;2022-07-01T06:51:12;24.30;99.90
15977;DHT22;8091;51.914;12.786;2022-07-01T06:53:44;24.50;99.90
15977;DHT22;8091;51.914;12.786;2022-07-01T06:56:13;24.20;99.90
15977;DHT22;8091;51.914;12.786;2022-07-01T06:58:39;24.10;99.90
15977;DHT22;8091;51.914;12.786;2022-07-01T07:01:10;24.20;99.90
15977;DHT22;8091;51.914;12.786;2022-07-01T07:03:36;24.40;99.90
15977;DHT22;8091;51.914;12.786;2022-07-01T07:06:02;24.70;99.90
15977;DHT22;8091;51.914;12.786;2022-07-01T07:08:29;25.00;99.90
15977;DHT22;8091;51.914;12.786;2022-07-01T07:10:55;25.10;99.90
15977;DHT22;8091;51.914;12.786;2022-07-01T07:13:21;25.10;99.90
15977;DHT22;8091;51.914;12.786;2022-07-01T07:15:47;25.20;99.90
15977;DHT22;8091;51.914;12.786;2022-07-01T07:18:14;25.00;99.90
15977;DHT22;8091;51.914;12.786;2022-07-01T07:20:39;24.50;99.90
15977;DHT22;8091;51.914;12.786;2022-07-01T07:23:05;24.40;99.90
15977;DHT22;8091;51.914;12.786;2022-07-01T07:25:31;24.10;99.90
15977;DHT22;8091;51.914;12.786;2022-07-01T07:27:57;24.00;99.90
15977;DHT22;8091;51.914;12.786;2022-07-01T07:30:23;23.70;99.90
15977;DHT22;8091;51.914;12.786;2022-07-01T07:32:49;23.70;99.90
15977;DHT22;8091;51.914;12.786;2022-07-01T07:35:15;23.70;99.90
15977;DHT22;8091;51.914;12.786;2022-07-01T07:37:41;23.70;99.90
15977;DHT22;8091;51.914;12.786;2022-07-01T07:40:08;23.20;99.90
15977;DHT22;8091;51.914;12.786;2022-07-01T07:42:39;23.10;99.90
15977;DHT22;8091;51.914;12.786;2022-07-01T07:45:06;23.00;99.90
15977;DHT22;8091;51.914;12.786;2022-07-01T07:47:35;22.90;99.90
15977;DHT22;8091;51.914;12.786;2022-07-01T07:50:01;22.70;99.90
15977;DHT22;8091;51.914;12.786;2022-07-01T07:52:28;22.50;99.90
15977;DHT22;8091;51.914;12.786;2022-07-01T07:54:53;22.40;99.90
15977;DHT22;8091;51.914;12.786;2022-07-01T07:57:19;22.20;99.90
15977;DHT22;8091;51.914;12.786;2022-07-01T07:59:45;22.10;99.90
15977;DHT22;8091;51.914;12.786;2022-07-01T08:02:10;21.80;99.90
15977;DHT22;8091;51.914;12.786;2022-07-01T08:04:36;21.80;99.90
15977;DHT22;8091;51.914;12.786;2022-07-01T08:07:02;21.70;99.90
15977;DHT22;8091;51.914;12.786;2022-07-01T08:09:27;21.70;99.90
15977;DHT22;8091;51.914;12.786;2022-07-01T08:11:53;21.80;99.90
15977;DHT22;8091;51.914;12.786;2022-07-01T08:14:19;21.60;99.90
15977;DHT22;8091;51.914;12.786;2022-07-01T08:16:45;21.50;99.90
15977;DHT22;8091;51.914;12.786;2022-07-01T08:19:10;21.30;99.90
15977;DHT22;8091;51.914;12.786;2022-07-01T08:21:36;21.20;99.90
15977;DHT22;8091;51.914;12.786;2022-07-01T08:24:02;21.00;99.90
15977;DHT22;8091;51.914;12.786;2022-07-01T08:26:32;21.00;99.90
15977;DHT22;8091;51.914;12.786;2022-07-01T08:28:58;21.00;99.90
15977;DHT22;8091;51.914;12.786;2022-07-01T08:31:25;21.10;99.90
15977;DHT22;8091;51.914;12.786;2022-07-01T08:33:50;21.30;99.90
15977;DHT22;8091;51.914;12.786;2022-07-01T08:36:16;21.10;99.90
15977;DHT22;8091;51.914;12.786;2022-07-01T08:38:41;21.20;99.90
15977;DHT22;8091;51.914;12.786;2022-07-01T08:41:07;21.40;99.90
15977;DHT22;8091;51.914;12.786;2022-07-01T08:43:34;21.40;99.90
15977;DHT22;8091;51.914;12.786;2022-07-01T08:46:01;21.40;99.90
15977;DHT22;8091;51.914;12.786;2022-07-01T08:48:31;21.30;99.90
15977;DHT22;8091;51.914;12.786;2022-07-01T08:50:58;21.20;99.90
15977;DHT22;8091;51.914;12.786;2022-07-01T08:53:30;21.40;99.90
15977;DHT22;8091;51.914;12.786;2022-07-01T08:55:57;21.30;99.90
15977;DHT22;8091;51.914;12.786;2022-07-01T08:58:41;21.20;99.90
15977;DHT22;8091;51.914;12.786;2022-07-01T09:03:38;20.70;99.90
15977;DHT22;8091;51.914;12.786;2022-07-01T09:06:28;20.30;99.90
15977;DHT22;8091;51.914;12.786;2022-07-01T09:08:54;20.30;99.90
15977;DHT22;8091;51.914;12.786;2022-07-01T09:11:22;20.00;99.90
15977;DHT22;8091;51.914;12.786;2022-07-01T09:14:09;19.90;99.90
15977;DHT22;8091;51.914;12.786;2022-07-01T09:16:45;19.90;99.90
15977;DHT22;8091;51.914;12.786;2022-07-01T09:19:12;19.90;99.90
15977;DHT22;8091;51.914;12.786;2022-07-01T09:21:40;19.90;99.90
15977;DHT22;8091;51.914;12.786;2022-07-01T09:24:41;20.00;99.90
15977;DHT22;8091;51.914;12.786;2022-07-01T09:27:10;19.90;99.90
15977;DHT22;8091;51.914;12.786;2022-07-01T09:29:44;19.90;99.90
15977;DHT22;8091;51.914;12.786;2022-07-01T09:32:17;20.00;99.90
15977;DHT22;8091;51.914;12.786;2022-07-01T09:34:45;20.20;99.90
15977;DHT22;8091;51.914;12.786;2022-07-01T09:37:16;20.40;99.90
15977;DHT22;8091;51.914;12.786;2022-07-01T09:42:09;20.30;99.90
15977;DHT22;8091;51.914;12.786;2022-07-01T09:44:36;20.20;99.90
15977;DHT22;8091;51.914;12.786;2022-07-01T09:47:16;20.20;99.90
15977;DHT22;8091;51.914;12.786;2022-07-01T09:49:42;20.30;99.90
15977;DHT22;8091;51.914;12.786;2022-07-01T09:52:08;20.30;99.90
15977;DHT22;8091;51.914;12.786;2022-07-01T09:54:34;20.10;99.90
15977;DHT22;8091;51.914;12.786;2022-07-01T09:57:00;20.10;99.90
15977;DHT22;8091;51.914;12.786;2022-07-01T09:59:27;20.00;99.90
